Weissport, Pennsylvania
Current Conditions -  °F | °C
As of 6:35 AM on Saturday 22 Nov 2014 (Local Time) from KHZL Reporting Station
Clear Clear  
Wind Chill: 18°   Ceiling: Unl
Heat Index: 18°   Visibility: 10mi
Dew Point: 10°   Wind: 3mph
Humidity: 73%   Direction: 200°SSW
Pressure: 30.39"   Gusts: NA
Location:  40.8001°N, 75.751°W
Report Text: KHZL 221135Z AUTO 20003KT 10SM CLR M08/M12 A3039 RMK AO2
Loading
Personal Weather Stations






























Interactive Weather Map New forecast layout! Learn more

10-Day Weather Forecast

Advertisements
Track Severe Weather on mobile